sensor_id;sensor_type;location;lat;lon;timestamp;temperature;humidity
75210;DHT22;63796;53.136;14.882;2023-05-16T00:01:37;11.90;99.90
75210;DHT22;63796;53.136;14.882;2023-05-16T00:04:05;11.90;99.90
75210;DHT22;63796;53.136;14.882;2023-05-16T00:06:33;11.90;99.90
75210;DHT22;63796;53.136;14.882;2023-05-16T00:09:02;11.80;99.90
75210;DHT22;63796;53.136;14.882;2023-05-16T00:11:29;11.80;99.90
75210;DHT22;63796;53.136;14.882;2023-05-16T00:13:56;11.80;99.90
75210;DHT22;63796;53.136;14.882;2023-05-16T00:16:24;11.80;99.90
75210;DHT22;63796;53.136;14.882;2023-05-16T00:18:52;11.80;99.90
75210;DHT22;63796;53.136;14.882;2023-05-16T00:21:19;11.70;99.90
75210;DHT22;63796;53.136;14.882;2023-05-16T00:23:49;11.70;99.90
75210;DHT22;63796;53.136;14.882;2023-05-16T00:26:18;11.70;99.90
75210;DHT22;63796;53.136;14.882;2023-05-16T00:28:46;11.50;99.90
75210;DHT22;63796;53.136;14.882;2023-05-16T00:31:13;11.50;99.90
75210;DHT22;63796;53.136;14.882;2023-05-16T00:33:41;11.40;99.90
75210;DHT22;63796;53.136;14.882;2023-05-16T00:36:08;11.20;99.90
75210;DHT22;63796;53.136;14.882;2023-05-16T00:38:36;11.20;99.90
75210;DHT22;63796;53.136;14.882;2023-05-16T00:41:03;11.20;99.90
75210;DHT22;63796;53.136;14.882;2023-05-16T00:43:30;11.20;99.90
75210;DHT22;63796;53.136;14.882;2023-05-16T00:45:58;11.10;99.90
75210;DHT22;63796;53.136;14.882;2023-05-16T00:48:27;11.20;99.90
75210;DHT22;63796;53.136;14.882;2023-05-16T00:50:54;11.30;99.90
75210;DHT22;63796;53.136;14.882;2023-05-16T00:53:22;11.30;99.90
75210;DHT22;63796;53.136;14.882;2023-05-16T00:55:50;11.60;99.90
75210;DHT22;63796;53.136;14.882;2023-05-16T00:58:18;11.90;99.90
75210;DHT22;63796;53.136;14.882;2023-05-16T01:00:48;12.00;99.90
75210;DHT22;63796;53.136;14.882;2023-05-16T01:03:16;12.20;99.90
75210;DHT22;63796;53.136;14.882;2023-05-16T01:05:44;12.10;99.90
75210;DHT22;63796;53.136;14.882;2023-05-16T01:08:12;12.10;99.90
75210;DHT22;63796;53.136;14.882;2023-05-16T01:11:24;12.00;99.90
75210;DHT22;63796;53.136;14.882;2023-05-16T01:16:30;12.00;99.90
75210;DHT22;63796;53.136;14.882;2023-05-16T01:22:02;11.90;99.90
75210;DHT22;63796;53.136;14.882;2023-05-16T01:27:22;12.10;99.90
75210;DHT22;63796;53.136;14.882;2023-05-16T01:29:54;12.20;99.90
75210;DHT22;63796;53.136;14.882;2023-05-16T01:32:22;12.30;99.90
75210;DHT22;63796;53.136;14.882;2023-05-16T01:34:50;12.30;99.90
75210;DHT22;63796;53.136;14.882;2023-05-16T01:37:18;12.40;99.90
75210;DHT22;63796;53.136;14.882;2023-05-16T01:39:51;12.40;99.90
75210;DHT22;63796;53.136;14.882;2023-05-16T01:42:24;12.30;99.90
75210;DHT22;63796;53.136;14.882;2023-05-16T01:44:55;12.30;99.90
75210;DHT22;63796;53.136;14.882;2023-05-16T01:47:24;12.20;99.90
75210;DHT22;63796;53.136;14.882;2023-05-16T01:49:57;12.20;99.90
75210;DHT22;63796;53.136;14.882;2023-05-16T01:52:27;12.20;99.90
75210;DHT22;63796;53.136;14.882;2023-05-16T01:55:00;12.20;99.90
75210;DHT22;63796;53.136;14.882;2023-05-16T01:57:29;12.20;99.90
75210;DHT22;63796;53.136;14.882;2023-05-16T01:59:57;11.90;99.90
75210;DHT22;63796;53.136;14.882;2023-05-16T02:02:25;11.80;99.90
75210;DHT22;63796;53.136;14.882;2023-05-16T02:04:53;11.80;99.90
75210;DHT22;63796;53.136;14.882;2023-05-16T02:07:20;11.60;99.90
75210;DHT22;63796;53.136;14.882;2023-05-16T02:09:47;11.70;99.90
75210;DHT22;63796;53.136;14.882;2023-05-16T02:12:15;11.60;99.90
75210;DHT22;63796;53.136;14.882;2023-05-16T02:14:43;11.60;99.90
75210;DHT22;63796;53.136;14.882;2023-05-16T02:17:10;11.50;99.90
75210;DHT22;63796;53.136;14.882;2023-05-16T02:19:38;11.50;99.90
75210;DHT22;63796;53.136;14.882;2023-05-16T02:22:05;11.40;99.90
75210;DHT22;63796;53.136;14.882;2023-05-16T02:24:32;11.40;99.90
75210;DHT22;63796;53.136;14.882;2023-05-16T02:27:00;11.40;99.90
75210;DHT22;63796;53.136;14.882;2023-05-16T02:29:28;11.40;99.90
75210;DHT22;63796;53.136;14.882;2023-05-16T02:31:55;11.30;99.90
75210;DHT22;63796;53.136;14.882;2023-05-16T02:34:23;11.30;99.90
75210;DHT22;63796;53.136;14.882;2023-05-16T02:36:50;11.30;99.90
75210;DHT22;63796;53.136;14.882;2023-05-16T02:39:17;11.20;99.90
75210;DHT22;63796;53.136;14.882;2023-05-16T02:41:45;11.10;99.90
75210;DHT22;63796;53.136;14.882;2023-05-16T02:44:12;11.20;99.90
75210;DHT22;63796;53.136;14.882;2023-05-16T02:46:39;11.10;99.90
75210;DHT22;63796;53.136;14.882;2023-05-16T02:49:07;11.10;99.90
75210;DHT22;63796;53.136;14.882;2023-05-16T02:51:34;11.10;99.90
75210;DHT22;63796;53.136;14.882;2023-05-16T02:54:02;11.00;99.90
75210;DHT22;63796;53.136;14.882;2023-05-16T02:56:29;10.90;99.90
75210;DHT22;63796;53.136;14.882;2023-05-16T02:58:56;10.80;99.90
75210;DHT22;63796;53.136;14.882;2023-05-16T03:01:23;10.80;99.90
75210;DHT22;63796;53.136;14.882;2023-05-16T03:03:51;10.80;99.90
75210;DHT22;63796;53.136;14.882;2023-05-16T03:06:19;10.70;99.90
75210;DHT22;63796;53.136;14.882;2023-05-16T03:08:46;10.50;99.90
75210;DHT22;63796;53.136;14.882;2023-05-16T03:11:15;10.20;99.90
75210;DHT22;63796;53.136;14.882;2023-05-16T03:13:46;10.00;99.90
75210;DHT22;63796;53.136;14.882;2023-05-16T03:16:14;10.00;99.90
75210;DHT22;63796;53.136;14.882;2023-05-16T03:18:42;10.10;99.90
75210;DHT22;63796;53.136;14.882;2023-05-16T03:21:09;10.10;99.90
75210;DHT22;63796;53.136;14.882;2023-05-16T03:23:37;10.10;99.90
75210;DHT22;63796;53.136;14.882;2023-05-16T03:26:04;10.20;99.90
75210;DHT22;63796;53.136;14.882;2023-05-16T03:28:32;10.30;99.90
75210;DHT22;63796;53.136;14.882;2023-05-16T03:30:59;10.30;99.90
75210;DHT22;63796;53.136;14.882;2023-05-16T03:33:27;10.30;99.90
75210;DHT22;63796;53.136;14.882;2023-05-16T03:35:54;10.50;99.90
75210;DHT22;63796;53.136;14.882;2023-05-16T03:38:21;10.50;99.90
75210;DHT22;63796;53.136;14.882;2023-05-16T03:40:49;10.60;99.90
75210;DHT22;63796;53.136;14.882;2023-05-16T03:43:17;10.70;99.90
75210;DHT22;63796;53.136;14.882;2023-05-16T03:45:44;10.70;99.90
75210;DHT22;63796;53.136;14.882;2023-05-16T03:48:11;10.50;99.90
75210;DHT22;63796;53.136;14.882;2023-05-16T03:50:39;10.70;99.90
75210;DHT22;63796;53.136;14.882;2023-05-16T03:53:07;10.70;99.90
75210;DHT22;63796;53.136;14.882;2023-05-16T03:55:36;10.90;99.90
75210;DHT22;63796;53.136;14.882;2023-05-16T03:58:03;10.80;99.90
75210;DHT22;63796;53.136;14.882;2023-05-16T04:00:31;11.00;99.90
75210;DHT22;63796;53.136;14.882;2023-05-16T04:02:58;11.20;99.90
75210;DHT22;63796;53.136;14.882;2023-05-16T04:05:25;11.50;99.90
75210;DHT22;63796;53.136;14.882;2023-05-16T04:07:53;11.40;99.90
75210;DHT22;63796;53.136;14.882;2023-05-16T04:10:21;11.80;99.90
75210;DHT22;63796;53.136;14.882;2023-05-16T04:12:48;12.00;99.90
75210;DHT22;63796;53.136;14.882;2023-05-16T04:15:16;12.20;99.90
75210;DHT22;63796;53.136;14.882;2023-05-16T04:17:43;12.30;99.90
75210;DHT22;63796;53.136;14.882;2023-05-16T04:20:10;12.40;99.90
75210;DHT22;63796;53.136;14.882;2023-05-16T04:22:38;12.60;99.90
75210;DHT22;63796;53.136;14.882;2023-05-16T04:25:05;12.70;99.90
75210;DHT22;63796;53.136;14.882;2023-05-16T04:27:33;13.00;99.90
75210;DHT22;63796;53.136;14.882;2023-05-16T04:30:00;13.20;99.90
75210;DHT22;63796;53.136;14.882;2023-05-16T04:32:28;13.60;99.90
75210;DHT22;63796;53.136;14.882;2023-05-16T04:34:56;14.30;99.90
75210;DHT22;63796;53.136;14.882;2023-05-16T04:37:23;15.70;99.90
75210;DHT22;63796;53.136;14.882;2023-05-16T04:39:50;17.00;99.90
75210;DHT22;63796;53.136;14.882;2023-05-16T04:42:19;17.70;99.90
75210;DHT22;63796;53.136;14.882;2023-05-16T04:44:46;18.00;99.90
75210;DHT22;63796;53.136;14.882;2023-05-16T04:47:14;18.20;99.90
75210;DHT22;63796;53.136;14.882;2023-05-16T04:49:41;18.30;99.90
75210;DHT22;63796;53.136;14.882;2023-05-16T04:52:08;18.50;99.90
75210;DHT22;63796;53.136;14.882;2023-05-16T04:54:37;18.90;99.90
75210;DHT22;63796;53.136;14.882;2023-05-16T04:57:05;18.80;99.90
75210;DHT22;63796;53.136;14.882;2023-05-16T04:59:32;19.20;99.90
75210;DHT22;63796;53.136;14.882;2023-05-16T05:02:00;19.40;99.90
75210;DHT22;63796;53.136;14.882;2023-05-16T05:04:27;19.70;99.90
75210;DHT22;63796;53.136;14.882;2023-05-16T05:06:54;19.20;99.90
75210;DHT22;63796;53.136;14.882;2023-05-16T05:09:22;18.60;99.90
75210;DHT22;63796;53.136;14.882;2023-05-16T05:11:49;17.40;99.90
75210;DHT22;63796;53.136;14.882;2023-05-16T05:14:16;16.60;99.90
75210;DHT22;63796;53.136;14.882;2023-05-16T05:16:44;16.10;99.90
75210;DHT22;63796;53.136;14.882;2023-05-16T05:19:11;15.80;99.90
75210;DHT22;63796;53.136;14.882;2023-05-16T05:21:38;15.70;99.90
75210;DHT22;63796;53.136;14.882;2023-05-16T05:24:05;15.40;99.90
75210;DHT22;63796;53.136;14.882;2023-05-16T05:26:33;14.80;99.90
75210;DHT22;63796;53.136;14.882;2023-05-16T05:29:00;14.60;99.90
75210;DHT22;63796;53.136;14.882;2023-05-16T05:31:32;14.30;99.90
75210;DHT22;63796;53.136;14.882;2023-05-16T05:34:01;14.20;99.90
75210;DHT22;63796;53.136;14.882;2023-05-16T05:36:29;13.90;99.90
75210;DHT22;63796;53.136;14.882;2023-05-16T05:38:57;13.70;99.90
75210;DHT22;63796;53.136;14.882;2023-05-16T05:41:24;13.80;99.90
75210;DHT22;63796;53.136;14.882;2023-05-16T05:43:52;13.60;99.90
75210;DHT22;63796;53.136;14.882;2023-05-16T05:46:20;13.70;99.90
75210;DHT22;63796;53.136;14.882;2023-05-16T05:48:47;13.60;99.90
75210;DHT22;63796;53.136;14.882;2023-05-16T05:51:15;13.70;99.90
75210;DHT22;63796;53.136;14.882;2023-05-16T05:53:43;13.90;99.90
75210;DHT22;63796;53.136;14.882;2023-05-16T05:56:11;14.00;99.90
75210;DHT22;63796;53.136;14.882;2023-05-16T05:58:38;13.90;99.90
75210;DHT22;63796;53.136;14.882;2023-05-16T06:01:09;14.00;99.90
75210;DHT22;63796;53.136;14.882;2023-05-16T06:03:37;14.00;99.90
75210;DHT22;63796;53.136;14.882;2023-05-16T06:06:05;13.90;99.90
75210;DHT22;63796;53.136;14.882;2023-05-16T06:08:33;14.10;99.90
75210;DHT22;63796;53.136;14.882;2023-05-16T06:11:01;14.30;99.90
75210;DHT22;63796;53.136;14.882;2023-05-16T06:13:28;14.30;99.90
75210;DHT22;63796;53.136;14.882;2023-05-16T06:15:55;14.40;99.90
75210;DHT22;63796;53.136;14.882;2023-05-16T06:18:23;14.30;99.90
75210;DHT22;63796;53.136;14.882;2023-05-16T06:20:51;14.50;99.90
75210;DHT22;63796;53.136;14.882;2023-05-16T06:23:18;14.70;99.90
75210;DHT22;63796;53.136;14.882;2023-05-16T06:25:47;14.80;99.90
75210;DHT22;63796;53.136;14.882;2023-05-16T06:28:14;14.50;99.90
75210;DHT22;63796;53.136;14.882;2023-05-16T06:30:41;14.70;99.90
75210;DHT22;63796;53.136;14.882;2023-05-16T06:33:09;14.70;99.90
75210;DHT22;63796;53.136;14.882;2023-05-16T06:35:37;15.00;99.90
75210;DHT22;63796;53.136;14.882;2023-05-16T06:38:05;15.10;99.90
75210;DHT22;63796;53.136;14.882;2023-05-16T06:40:32;15.20;99.90
75210;DHT22;63796;53.136;14.882;2023-05-16T06:43:00;15.10;99.90
75210;DHT22;63796;53.136;14.882;2023-05-16T06:45:27;15.00;99.90
75210;DHT22;63796;53.136;14.882;2023-05-16T06:47:55;15.20;99.90
75210;DHT22;63796;53.136;14.882;2023-05-16T06:50:23;15.30;99.90
75210;DHT22;63796;53.136;14.882;2023-05-16T06:52:50;14.90;99.90
75210;DHT22;63796;53.136;14.882;2023-05-16T06:55:18;14.60;99.90
75210;DHT22;63796;53.136;14.882;2023-05-16T06:57:46;14.80;99.90
75210;DHT22;63796;53.136;14.882;2023-05-16T07:00:14;15.00;99.90
75210;DHT22;63796;53.136;14.882;2023-05-16T07:02:41;15.30;99.90
75210;DHT22;63796;53.136;14.882;2023-05-16T07:05:09;15.50;99.90
75210;DHT22;63796;53.136;14.882;2023-05-16T07:07:36;15.20;99.90
75210;DHT22;63796;53.136;14.882;2023-05-16T07:10:04;15.30;99.90
75210;DHT22;63796;53.136;14.882;2023-05-16T07:12:34;15.60;99.90
75210;DHT22;63796;53.136;14.882;2023-05-16T07:15:04;15.50;99.90
75210;DHT22;63796;53.136;14.882;2023-05-16T07:17:31;15.20;99.90
75210;DHT22;63796;53.136;14.882;2023-05-16T07:19:59;15.60;99.90
75210;DHT22;63796;53.136;14.882;2023-05-16T07:22:30;15.50;99.90
75210;DHT22;63796;53.136;14.882;2023-05-16T07:24:58;15.40;99.90
75210;DHT22;63796;53.136;14.882;2023-05-16T07:27:27;15.50;99.90
75210;DHT22;63796;53.136;14.882;2023-05-16T07:29:54;15.30;99.90
75210;DHT22;63796;53.136;14.882;2023-05-16T07:32:22;15.20;99.90
75210;DHT22;63796;53.136;14.882;2023-05-16T07:34:49;15.00;99.90
75210;DHT22;63796;53.136;14.882;2023-05-16T07:37:17;15.10;99.90
75210;DHT22;63796;53.136;14.882;2023-05-16T07:39:44;15.00;99.90
75210;DHT22;63796;53.136;14.882;2023-05-16T07:42:17;15.00;99.90
75210;DHT22;63796;53.136;14.882;2023-05-16T07:44:44;15.10;99.90
75210;DHT22;63796;53.136;14.882;2023-05-16T07:47:12;15.20;99.90
75210;DHT22;63796;53.136;14.882;2023-05-16T07:49:40;15.40;99.90
75210;DHT22;63796;53.136;14.882;2023-05-16T07:52:07;15.80;99.90
75210;DHT22;63796;53.136;14.882;2023-05-16T07:54:35;15.70;99.90
75210;DHT22;63796;53.136;14.882;2023-05-16T07:57:04;15.40;99.90
75210;DHT22;63796;53.136;14.882;2023-05-16T07:59:32;15.30;99.90
75210;DHT22;63796;53.136;14.882;2023-05-16T08:01:59;14.90;99.90
75210;DHT22;63796;53.136;14.882;2023-05-16T08:04:27;14.70;99.90
75210;DHT22;63796;53.136;14.882;2023-05-16T08:06:54;14.70;99.90
75210;DHT22;63796;53.136;14.882;2023-05-16T08:09:22;14.80;99.90
75210;DHT22;63796;53.136;14.882;2023-05-16T08:11:49;14.80;99.90
75210;DHT22;63796;53.136;14.882;2023-05-16T08:14:16;14.90;99.90
75210;DHT22;63796;53.136;14.882;2023-05-16T08:16:44;14.90;99.90
75210;DHT22;63796;53.136;14.882;2023-05-16T08:19:12;14.90;99.90
75210;DHT22;63796;53.136;14.882;2023-05-16T08:21:39;15.00;99.90
75210;DHT22;63796;53.136;14.882;2023-05-16T08:24:07;15.00;99.90
75210;DHT22;63796;53.136;14.882;2023-05-16T08:26:34;15.10;99.90
75210;DHT22;63796;53.136;14.882;2023-05-16T08:29:03;15.00;99.90
75210;DHT22;63796;53.136;14.882;2023-05-16T08:31:30;14.90;99.90
75210;DHT22;63796;53.136;14.882;2023-05-16T08:33:59;14.90;99.90
75210;DHT22;63796;53.136;14.882;2023-05-16T08:36:27;14.90;99.90
75210;DHT22;63796;53.136;14.882;2023-05-16T08:38:55;15.10;99.90
75210;DHT22;63796;53.136;14.882;2023-05-16T08:41:22;15.20;99.90
75210;DHT22;63796;53.136;14.882;2023-05-16T08:43:49;15.20;99.90
75210;DHT22;63796;53.136;14.882;2023-05-16T08:46:19;15.30;99.90
75210;DHT22;63796;53.136;14.882;2023-05-16T08:48:52;15.50;99.90
75210;DHT22;63796;53.136;14.882;2023-05-16T08:51:20;15.60;99.90
75210;DHT22;63796;53.136;14.882;2023-05-16T08:54:12;15.90;99.90
75210;DHT22;63796;53.136;14.882;2023-05-16T08:56:43;15.90;99.90
75210;DHT22;63796;53.136;14.882;2023-05-16T08:59:10;16.10;99.90
75210;DHT22;63796;53.136;14.882;2023-05-16T09:01:38;15.70;99.90
75210;DHT22;63796;53.136;14.882;2023-05-16T09:04:07;15.20;99.90
75210;DHT22;63796;53.136;14.882;2023-05-16T09:06:36;14.70;99.90
75210;DHT22;63796;53.136;14.882;2023-05-16T09:09:04;14.60;99.90
75210;DHT22;63796;53.136;14.882;2023-05-16T09:11:34;14.40;99.90
75210;DHT22;63796;53.136;14.882;2023-05-16T09:14:02;14.80;99.90
75210;DHT22;63796;53.136;14.882;2023-05-16T09:16:31;15.00;99.90
75210;DHT22;63796;53.136;14.882;2023-05-16T09:18:59;15.10;99.90
75210;DHT22;63796;53.136;14.882;2023-05-16T09:21:29;14.90;99.90
75210;DHT22;63796;53.136;14.882;2023-05-16T09:26:32;14.70;99.90
75210;DHT22;63796;53.136;14.882;2023-05-16T09:29:01;14.50;99.90
75210;DHT22;63796;53.136;14.882;2023-05-16T09:31:28;14.50;99.90
75210;DHT22;63796;53.136;14.882;2023-05-16T09:34:07;14.40;99.90
75210;DHT22;63796;53.136;14.882;2023-05-16T09:36:35;14.40;99.90
75210;DHT22;63796;53.136;14.882;2023-05-16T09:39:02;14.60;99.90
75210;DHT22;63796;53.136;14.882;2023-05-16T09:41:34;14.80;99.90
75210;DHT22;63796;53.136;14.882;2023-05-16T09:44:02;14.70;99.90
75210;DHT22;63796;53.136;14.882;2023-05-16T09:46:33;14.50;99.90
75210;DHT22;63796;53.136;14.882;2023-05-16T09:49:01;14.60;99.90
75210;DHT22;63796;53.136;14.882;2023-05-16T09:51:28;14.70;99.90
75210;DHT22;63796;53.136;14.882;2023-05-16T09:53:57;14.40;99.90
75210;DHT22;63796;53.136;14.882;2023-05-16T09:56:24;14.20;99.90
75210;DHT22;63796;53.136;14.882;2023-05-16T09:58:52;14.20;99.90
75210;DHT22;63796;53.136;14.882;2023-05-16T10:01:19;14.20;99.90
75210;DHT22;63796;53.136;14.882;2023-05-16T10:03:46;14.00;99.90
75210;DHT22;63796;53.136;14.882;2023-05-16T10:06:14;14.00;99.90
75210;DHT22;63796;53.136;14.882;2023-05-16T10:08:43;14.20;99.90
75210;DHT22;63796;53.136;14.882;2023-05-16T10:11:11;14.30;99.90
75210;DHT22;63796;53.136;14.882;2023-05-16T10:13:39;14.10;99.90
75210;DHT22;63796;53.136;14.882;2023-05-16T10:16:10;13.80;99.90
75210;DHT22;63796;53.136;14.882;2023-05-16T10:18:38;13.80;99.90
75210;DHT22;63796;53.136;14.882;2023-05-16T10:21:07;13.90;99.90
75210;DHT22;63796;53.136;14.882;2023-05-16T10:23:40;13.70;99.90
75210;DHT22;63796;53.136;14.882;2023-05-16T10:26:10;14.00;99.90
75210;DHT22;63796;53.136;14.882;2023-05-16T10:28:42;14.20;99.90
75210;DHT22;63796;53.136;14.882;2023-05-16T10:31:10;14.50;99.90
75210;DHT22;63796;53.136;14.882;2023-05-16T10:33:38;14.80;99.90
75210;DHT22;63796;53.136;14.882;2023-05-16T10:36:07;15.00;99.90
75210;DHT22;63796;53.136;14.882;2023-05-16T10:38:35;15.10;99.90
75210;DHT22;63796;53.136;14.882;2023-05-16T10:41:04;14.70;99.90
75210;DHT22;63796;53.136;14.882;2023-05-16T10:43:33;14.60;99.90
75210;DHT22;63796;53.136;14.882;2023-05-16T10:46:06;14.40;99.90
75210;DHT22;63796;53.136;14.882;2023-05-16T10:48:39;14.30;99.90
75210;DHT22;63796;53.136;14.882;2023-05-16T10:53:52;14.50;99.90
75210;DHT22;63796;53.136;14.882;2023-05-16T10:56:24;14.70;99.90
75210;DHT22;63796;53.136;14.882;2023-05-16T10:58:53;14.50;99.90
75210;DHT22;63796;53.136;14.882;2023-05-16T11:01:22;14.50;99.90
75210;DHT22;63796;53.136;14.882;2023-05-16T11:06:27;14.30;99.90
75210;DHT22;63796;53.136;14.882;2023-05-16T11:14:06;14.10;99.90
75210;DHT22;63796;53.136;14.882;2023-05-16T11:16:35;14.20;99.90
75210;DHT22;63796;53.136;14.882;2023-05-16T11:19:06;14.40;99.90
75210;DHT22;63796;53.136;14.882;2023-05-16T11:24:34;14.30;99.90
75210;DHT22;63796;53.136;14.882;2023-05-16T11:27:04;14.20;99.90
75210;DHT22;63796;53.136;14.882;2023-05-16T11:29:35;14.50;99.90
75210;DHT22;63796;53.136;14.882;2023-05-16T11:32:03;14.60;99.90
75210;DHT22;63796;53.136;14.882;2023-05-16T11:34:31;14.70;99.90
75210;DHT22;63796;53.136;14.882;2023-05-16T11:37:03;14.90;99.90
75210;DHT22;63796;53.136;14.882;2023-05-16T11:39:31;14.70;99.90
75210;DHT22;63796;53.136;14.882;2023-05-16T11:41:58;14.60;99.90
75210;DHT22;63796;53.136;14.882;2023-05-16T11:44:25;14.50;99.90
75210;DHT22;63796;53.136;14.882;2023-05-16T11:46:53;14.40;99.90
75210;DHT22;63796;53.136;14.882;2023-05-16T11:49:20;14.60;99.90
75210;DHT22;63796;53.136;14.882;2023-05-16T11:51:48;14.80;99.90
75210;DHT22;63796;53.136;14.882;2023-05-16T11:54:18;14.70;99.90
75210;DHT22;63796;53.136;14.882;2023-05-16T11:56:45;14.50;99.90
75210;DHT22;63796;53.136;14.882;2023-05-16T11:59:13;14.50;99.90
75210;DHT22;63796;53.136;14.882;2023-05-16T12:01:41;14.50;99.90
75210;DHT22;63796;53.136;14.882;2023-05-16T12:04:09;14.50;99.90
75210;DHT22;63796;53.136;14.882;2023-05-16T12:06:40;14.50;99.90
75210;DHT22;63796;53.136;14.882;2023-05-16T12:09:12;14.60;99.90
75210;DHT22;63796;53.136;14.882;2023-05-16T12:11:44;14.80;99.90
75210;DHT22;63796;53.136;14.882;2023-05-16T12:14:11;14.80;99.90
75210;DHT22;63796;53.136;14.882;2023-05-16T12:16:40;14.80;99.90
75210;DHT22;63796;53.136;14.882;2023-05-16T12:19:09;14.90;99.90
75210;DHT22;63796;53.136;14.882;2023-05-16T12:21:37;14.90;99.90
75210;DHT22;63796;53.136;14.882;2023-05-16T12:24:08;14.90;99.90
75210;DHT22;63796;53.136;14.882;2023-05-16T12:26:38;14.80;99.90
75210;DHT22;63796;53.136;14.882;2023-05-16T12:29:08;14.50;99.90
75210;DHT22;63796;53.136;14.882;2023-05-16T12:31:39;14.50;99.90
75210;DHT22;63796;53.136;14.882;2023-05-16T12:34:14;14.50;99.90
75210;DHT22;63796;53.136;14.882;2023-05-16T12:36:43;14.50;99.90
75210;DHT22;63796;53.136;14.882;2023-05-16T12:39:11;14.50;99.90
75210;DHT22;63796;53.136;14.882;2023-05-16T12:41:40;14.60;99.90
75210;DHT22;63796;53.136;14.882;2023-05-16T12:44:13;14.70;99.90
75210;DHT22;63796;53.136;14.882;2023-05-16T12:46:49;14.70;99.90
75210;DHT22;63796;53.136;14.882;2023-05-16T12:49:21;14.80;99.90
75210;DHT22;63796;53.136;14.882;2023-05-16T12:51:52;14.90;99.90
75210;DHT22;63796;53.136;14.882;2023-05-16T12:54:21;14.70;99.90
75210;DHT22;63796;53.136;14.882;2023-05-16T12:56:49;14.60;99.90
75210;DHT22;63796;53.136;14.882;2023-05-16T12:59:16;14.70;99.90
75210;DHT22;63796;53.136;14.882;2023-05-16T13:01:45;14.50;99.90
75210;DHT22;63796;53.136;14.882;2023-05-16T13:04:12;14.30;99.90
75210;DHT22;63796;53.136;14.882;2023-05-16T13:06:44;14.10;99.90
75210;DHT22;63796;53.136;14.882;2023-05-16T13:09:25;14.10;99.90
75210;DHT22;63796;53.136;14.882;2023-05-16T13:11:58;14.00;99.90
75210;DHT22;63796;53.136;14.882;2023-05-16T13:14:25;14.00;99.90
75210;DHT22;63796;53.136;14.882;2023-05-16T13:16:53;14.10;99.90
75210;DHT22;63796;53.136;14.882;2023-05-16T13:19:20;14.10;99.90
75210;DHT22;63796;53.136;14.882;2023-05-16T13:21:49;14.20;99.90
75210;DHT22;63796;53.136;14.882;2023-05-16T13:24:16;14.40;99.90
75210;DHT22;63796;53.136;14.882;2023-05-16T13:26:43;14.40;99.90
75210;DHT22;63796;53.136;14.882;2023-05-16T13:29:11;14.40;99.90
75210;DHT22;63796;53.136;14.882;2023-05-16T13:31:39;14.10;99.90
75210;DHT22;63796;53.136;14.882;2023-05-16T13:34:06;14.00;99.90
75210;DHT22;63796;53.136;14.882;2023-05-16T13:36:33;14.00;99.90
75210;DHT22;63796;53.136;14.882;2023-05-16T13:39:19;14.10;99.90
75210;DHT22;63796;53.136;14.882;2023-05-16T13:41:46;14.20;99.90
75210;DHT22;63796;53.136;14.882;2023-05-16T13:44:15;14.30;99.90
75210;DHT22;63796;53.136;14.882;2023-05-16T13:46:43;14.30;99.90
75210;DHT22;63796;53.136;14.882;2023-05-16T13:49:10;14.20;99.90
75210;DHT22;63796;53.136;14.882;2023-05-16T13:51:38;14.00;99.90
75210;DHT22;63796;53.136;14.882;2023-05-16T13:54:05;14.00;99.90
75210;DHT22;63796;53.136;14.882;2023-05-16T13:56:32;14.10;99.90
75210;DHT22;63796;53.136;14.882;2023-05-16T13:59:00;14.20;99.90
75210;DHT22;63796;53.136;14.882;2023-05-16T14:01:32;14.30;99.90
75210;DHT22;63796;53.136;14.882;2023-05-16T14:04:00;14.40;99.90
75210;DHT22;63796;53.136;14.882;2023-05-16T14:06:28;14.30;99.90
75210;DHT22;63796;53.136;14.882;2023-05-16T14:08:55;14.20;99.90
75210;DHT22;63796;53.136;14.882;2023-05-16T14:11:23;14.20;99.90
75210;DHT22;63796;53.136;14.882;2023-05-16T14:13:55;14.10;99.90
75210;DHT22;63796;53.136;14.882;2023-05-16T14:16:24;14.20;99.90
75210;DHT22;63796;53.136;14.882;2023-05-16T14:18:51;14.40;99.90
75210;DHT22;63796;53.136;14.882;2023-05-16T14:21:19;14.50;99.90
75210;DHT22;63796;53.136;14.882;2023-05-16T14:23:46;14.80;99.90
75210;DHT22;63796;53.136;14.882;2023-05-16T14:26:14;14.90;99.90
75210;DHT22;63796;53.136;14.882;2023-05-16T14:28:42;15.10;99.90
75210;DHT22;63796;53.136;14.882;2023-05-16T14:31:10;15.20;99.90
75210;DHT22;63796;53.136;14.882;2023-05-16T14:33:38;15.30;99.90
75210;DHT22;63796;53.136;14.882;2023-05-16T14:36:07;15.40;99.90
75210;DHT22;63796;53.136;14.882;2023-05-16T14:38:34;15.60;99.90
75210;DHT22;63796;53.136;14.882;2023-05-16T14:41:02;15.80;99.90
75210;DHT22;63796;53.136;14.882;2023-05-16T14:43:29;15.90;99.90
75210;DHT22;63796;53.136;14.882;2023-05-16T14:45:56;16.20;99.90
75210;DHT22;63796;53.136;14.882;2023-05-16T14:48:24;16.30;99.90
75210;DHT22;63796;53.136;14.882;2023-05-16T14:50:51;16.40;99.90
75210;DHT22;63796;53.136;14.882;2023-05-16T14:53:19;16.90;99.90
75210;DHT22;63796;53.136;14.882;2023-05-16T14:55:47;16.70;99.90
75210;DHT22;63796;53.136;14.882;2023-05-16T14:58:15;16.90;99.90
75210;DHT22;63796;53.136;14.882;2023-05-16T15:00:42;16.70;99.90
75210;DHT22;63796;53.136;14.882;2023-05-16T15:03:10;15.90;99.90
75210;DHT22;63796;53.136;14.882;2023-05-16T15:05:40;16.20;99.90
75210;DHT22;63796;53.136;14.882;2023-05-16T15:08:08;16.60;99.90
75210;DHT22;63796;53.136;14.882;2023-05-16T15:10:35;16.80;99.90
75210;DHT22;63796;53.136;14.882;2023-05-16T15:13:02;16.80;99.90
75210;DHT22;63796;53.136;14.882;2023-05-16T15:15:30;16.50;99.90
75210;DHT22;63796;53.136;14.882;2023-05-16T15:17:59;15.90;99.90
75210;DHT22;63796;53.136;14.882;2023-05-16T15:20:26;16.30;99.90
75210;DHT22;63796;53.136;14.882;2023-05-16T15:22:54;16.70;99.90
75210;DHT22;63796;53.136;14.882;2023-05-16T15:25:21;16.90;99.90
75210;DHT22;63796;53.136;14.882;2023-05-16T15:27:49;16.80;99.90
75210;DHT22;63796;53.136;14.882;2023-05-16T15:30:16;17.10;99.90
75210;DHT22;63796;53.136;14.882;2023-05-16T15:32:44;17.30;99.90
75210;DHT22;63796;53.136;14.882;2023-05-16T15:35:12;17.00;99.90
75210;DHT22;63796;53.136;14.882;2023-05-16T15:37:39;17.00;99.90
75210;DHT22;63796;53.136;14.882;2023-05-16T15:40:07;16.80;99.90
75210;DHT22;63796;53.136;14.882;2023-05-16T15:42:35;17.10;99.90
75210;DHT22;63796;53.136;14.882;2023-05-16T15:45:02;17.30;99.90
75210;DHT22;63796;53.136;14.882;2023-05-16T15:47:30;17.20;99.90